sensor_id;sensor_type;location;lat;lon;timestamp;temperature;humidity
48666;DHT22;34452;50.796;4.994;2023-12-28T07:47:35;9.90;99.90
48666;DHT22;34452;50.796;4.994;2023-12-28T07:50:01;9.80;99.90
48666;DHT22;34452;50.796;4.994;2023-12-28T07:52:28;9.90;99.90
48666;DHT22;34452;50.796;4.994;2023-12-28T07:54:54;9.90;99.90
48666;DHT22;34452;50.796;4.994;2023-12-28T07:57:21;9.90;99.90
48666;DHT22;34452;50.796;4.994;2023-12-28T07:59:47;9.90;99.90
48666;DHT22;34452;50.796;4.994;2023-12-28T08:02:12;9.90;99.90
48666;DHT22;34452;50.796;4.994;2023-12-28T08:04:38;9.90;99.90
48666;DHT22;34452;50.796;4.994;2023-12-28T08:07:04;9.90;99.90
48666;DHT22;34452;50.796;4.994;2023-12-28T08:09:30;9.90;99.90
48666;DHT22;34452;50.796;4.994;2023-12-28T08:11:56;9.90;99.90
48666;DHT22;34452;50.796;4.994;2023-12-28T08:14:22;9.90;99.90
48666;DHT22;34452;50.796;4.994;2023-12-28T08:16:48;10.00;99.90
48666;DHT22;34452;50.796;4.994;2023-12-28T08:19:14;10.00;99.90
48666;DHT22;34452;50.796;4.994;2023-12-28T08:21:40;10.00;99.90
48666;DHT22;34452;50.796;4.994;2023-12-28T08:24:05;10.10;99.90
48666;DHT22;34452;50.796;4.994;2023-12-28T08:26:31;10.20;99.90
48666;DHT22;34452;50.796;4.994;2023-12-28T08:28:58;10.30;99.90
48666;DHT22;34452;50.796;4.994;2023-12-28T08:31:24;10.40;99.90
48666;DHT22;34452;50.796;4.994;2023-12-28T08:33:50;10.50;99.90
48666;DHT22;34452;50.796;4.994;2023-12-28T08:36:16;10.60;99.90
48666;DHT22;34452;50.796;4.994;2023-12-28T08:38:43;10.70;99.90
48666;DHT22;34452;50.796;4.994;2023-12-28T08:41:19;10.80;99.90
48666;DHT22;34452;50.796;4.994;2023-12-28T08:43:45;10.80;99.90
48666;DHT22;34452;50.796;4.994;2023-12-28T08:46:11;10.80;99.90
48666;DHT22;34452;50.796;4.994;2023-12-28T08:48:36;10.90;99.90
48666;DHT22;34452;50.796;4.994;2023-12-28T08:51:02;11.00;99.90
48666;DHT22;34452;50.796;4.994;2023-12-28T08:53:28;11.10;99.90
48666;DHT22;34452;50.796;4.994;2023-12-28T08:55:54;11.10;99.90
48666;DHT22;34452;50.796;4.994;2023-12-28T08:58:19;11.20;99.90
48666;DHT22;34452;50.796;4.994;2023-12-28T09:00:45;11.30;99.90
48666;DHT22;34452;50.796;4.994;2023-12-28T09:03:12;11.40;99.90
48666;DHT22;34452;50.796;4.994;2023-12-28T09:05:38;11.50;99.90
48666;DHT22;34452;50.796;4.994;2023-12-28T09:08:04;11.60;99.90
48666;DHT22;34452;50.796;4.994;2023-12-28T09:10:30;11.70;99.90
48666;DHT22;34452;50.796;4.994;2023-12-28T09:12:56;11.80;99.90
48666;DHT22;34452;50.796;4.994;2023-12-28T09:15:21;11.80;99.90
48666;DHT22;34452;50.796;4.994;2023-12-28T09:17:47;11.80;99.90
48666;DHT22;34452;50.796;4.994;2023-12-28T09:20:13;11.80;99.90
48666;DHT22;34452;50.796;4.994;2023-12-28T09:22:39;11.90;99.90
48666;DHT22;34452;50.796;4.994;2023-12-28T09:25:05;11.90;99.90
48666;DHT22;34452;50.796;4.994;2023-12-28T09:27:31;11.90;99.90
48666;DHT22;34452;50.796;4.994;2023-12-28T09:29:57;11.90;99.90
48666;DHT22;34452;50.796;4.994;2023-12-28T09:32:23;11.90;99.90
48666;DHT22;34452;50.796;4.994;2023-12-28T09:34:48;11.80;99.90
48666;DHT22;34452;50.796;4.994;2023-12-28T09:37:14;11.70;99.90
48666;DHT22;34452;50.796;4.994;2023-12-28T09:39:40;11.60;99.90
48666;DHT22;34452;50.796;4.994;2023-12-28T09:42:16;11.50;99.90
48666;DHT22;34452;50.796;4.994;2023-12-28T09:44:43;11.50;99.90
48666;DHT22;34452;50.796;4.994;2023-12-28T09:47:10;11.60;99.90
48666;DHT22;34452;50.796;4.994;2023-12-28T09:49:39;11.60;99.90
48666;DHT22;34452;50.796;4.994;2023-12-28T10:10:13;11.60;99.90
48666;DHT22;34452;50.796;4.994;2023-12-28T10:12:38;11.70;99.90
48666;DHT22;34452;50.796;4.994;2023-12-28T10:15:05;11.70;99.90
48666;DHT22;34452;50.796;4.994;2023-12-28T10:17:34;11.80;99.90
48666;DHT22;34452;50.796;4.994;2023-12-28T10:20:03;11.80;99.90
48666;DHT22;34452;50.796;4.994;2023-12-28T10:22:32;11.80;99.90
48666;DHT22;34452;50.796;4.994;2023-12-28T10:24:59;11.90;99.90
48666;DHT22;34452;50.796;4.994;2023-12-28T10:27:26;11.90;99.90
48666;DHT22;34452;50.796;4.994;2023-12-28T10:29:56;11.90;99.90
48666;DHT22;34452;50.796;4.994;2023-12-28T10:32:22;11.90;99.90
48666;DHT22;34452;50.796;4.994;2023-12-28T10:34:52;12.00;99.90
48666;DHT22;34452;50.796;4.994;2023-12-28T10:37:24;12.00;99.90
48666;DHT22;34452;50.796;4.994;2023-12-28T10:39:53;12.00;99.90
48666;DHT22;34452;50.796;4.994;2023-12-28T10:45:14;12.00;99.90
48666;DHT22;34452;50.796;4.994;2023-12-28T10:47:59;12.00;99.90
48666;DHT22;34452;50.796;4.994;2023-12-28T10:50:30;12.00;99.90
48666;DHT22;34452;50.796;4.994;2023-12-28T10:53:06;12.10;99.90
48666;DHT22;34452;50.796;4.994;2023-12-28T10:55:53;12.00;99.90
48666;DHT22;34452;50.796;4.994;2023-12-28T10:58:39;12.10;99.90
48666;DHT22;34452;50.796;4.994;2023-12-28T11:01:09;12.20;99.90
48666;DHT22;34452;50.796;4.994;2023-12-28T11:03:37;12.20;99.90
48666;DHT22;34452;50.796;4.994;2023-12-28T11:06:07;12.30;99.90
48666;DHT22;34452;50.796;4.994;2023-12-28T11:08:34;12.30;99.90
48666;DHT22;34452;50.796;4.994;2023-12-28T11:11:01;12.40;99.90
48666;DHT22;34452;50.796;4.994;2023-12-28T11:13:32;12.40;99.90
48666;DHT22;34452;50.796;4.994;2023-12-28T11:15:59;12.50;99.90
48666;DHT22;34452;50.796;4.994;2023-12-28T11:18:26;12.60;99.90
48666;DHT22;34452;50.796;4.994;2023-12-28T11:20:54;12.70;99.90
48666;DHT22;34452;50.796;4.994;2023-12-28T11:23:20;12.70;99.90
48666;DHT22;34452;50.796;4.994;2023-12-28T11:25:46;12.80;99.90
48666;DHT22;34452;50.796;4.994;2023-12-28T11:28:12;13.00;99.90
48666;DHT22;34452;50.796;4.994;2023-12-28T11:30:41;13.00;99.90
48666;DHT22;34452;50.796;4.994;2023-12-28T11:33:07;13.10;99.90
48666;DHT22;34452;50.796;4.994;2023-12-28T11:35:38;13.20;99.90
48666;DHT22;34452;50.796;4.994;2023-12-28T11:38:07;13.30;99.90
48666;DHT22;34452;50.796;4.994;2023-12-28T11:40:45;13.30;99.90
48666;DHT22;34452;50.796;4.994;2023-12-28T11:43:19;13.20;99.90
48666;DHT22;34452;50.796;4.994;2023-12-28T11:45:55;13.20;99.90
48666;DHT22;34452;50.796;4.994;2023-12-28T11:48:28;13.20;99.90
48666;DHT22;34452;50.796;4.994;2023-12-28T11:51:00;13.20;99.90
48666;DHT22;34452;50.796;4.994;2023-12-28T11:53:27;13.20;99.90
48666;DHT22;34452;50.796;4.994;2023-12-28T11:55:59;13.30;99.90
48666;DHT22;34452;50.796;4.994;2023-12-28T11:58:27;13.30;99.90
48666;DHT22;34452;50.796;4.994;2023-12-28T12:00:53;13.20;99.90
48666;DHT22;34452;50.796;4.994;2023-12-28T12:03:19;13.20;99.90
48666;DHT22;34452;50.796;4.994;2023-12-28T12:05:45;13.10;99.90
48666;DHT22;34452;50.796;4.994;2023-12-28T12:08:11;13.10;99.90
48666;DHT22;34452;50.796;4.994;2023-12-28T12:10:40;13.20;99.90
48666;DHT22;34452;50.796;4.994;2023-12-28T12:13:07;13.10;99.90
48666;DHT22;34452;50.796;4.994;2023-12-28T12:15:33;13.10;99.90
48666;DHT22;34452;50.796;4.994;2023-12-28T12:18:00;13.10;99.90
48666;DHT22;34452;50.796;4.994;2023-12-28T12:20:26;13.10;99.90
48666;DHT22;34452;50.796;4.994;2023-12-28T12:22:57;13.10;99.90
48666;DHT22;34452;50.796;4.994;2023-12-28T12:25:23;13.10;99.90
48666;DHT22;34452;50.796;4.994;2023-12-28T12:27:49;13.10;99.90
48666;DHT22;34452;50.796;4.994;2023-12-28T12:30:15;13.10;99.90
48666;DHT22;34452;50.796;4.994;2023-12-28T12:32:41;13.10;99.90
48666;DHT22;34452;50.796;4.994;2023-12-28T12:35:10;13.00;99.90
48666;DHT22;34452;50.796;4.994;2023-12-28T12:37:37;13.00;99.90
48666;DHT22;34452;50.796;4.994;2023-12-28T12:40:05;13.00;99.90
48666;DHT22;34452;50.796;4.994;2023-12-28T12:42:33;12.90;99.90
48666;DHT22;34452;50.796;4.994;2023-12-28T12:44:59;12.80;99.90
48666;DHT22;34452;50.796;4.994;2023-12-28T12:47:25;12.80;99.90
48666;DHT22;34452;50.796;4.994;2023-12-28T12:49:55;12.80;99.90
48666;DHT22;34452;50.796;4.994;2023-12-28T12:52:21;12.80;99.90
48666;DHT22;34452;50.796;4.994;2023-12-28T12:54:58;12.80;99.90
48666;DHT22;34452;50.796;4.994;2023-12-28T12:57:27;12.70;99.90
48666;DHT22;34452;50.796;4.994;2023-12-28T12:59:53;12.70;99.90
48666;DHT22;34452;50.796;4.994;2023-12-28T13:02:21;12.70;99.90
48666;DHT22;34452;50.796;4.994;2023-12-28T13:04:47;12.70;99.90
48666;DHT22;34452;50.796;4.994;2023-12-28T13:07:13;12.60;99.90
48666;DHT22;34452;50.796;4.994;2023-12-28T13:09:39;12.60;99.90
48666;DHT22;34452;50.796;4.994;2023-12-28T13:12:05;12.60;99.90
48666;DHT22;34452;50.796;4.994;2023-12-28T13:14:30;12.60;99.90
48666;DHT22;34452;50.796;4.994;2023-12-28T13:16:56;12.60;99.90
48666;DHT22;34452;50.796;4.994;2023-12-28T13:19:22;12.60;99.90
48666;DHT22;34452;50.796;4.994;2023-12-28T13:21:48;12.60;99.90
48666;DHT22;34452;50.796;4.994;2023-12-28T13:24:14;12.60;99.90
48666;DHT22;34452;50.796;4.994;2023-12-28T13:26:39;12.60;99.90
48666;DHT22;34452;50.796;4.994;2023-12-28T13:29:05;12.50;99.90
48666;DHT22;34452;50.796;4.994;2023-12-28T13:31:31;12.50;99.90
48666;DHT22;34452;50.796;4.994;2023-12-28T13:33:56;12.50;99.90
48666;DHT22;34452;50.796;4.994;2023-12-28T13:36:22;12.50;99.90
48666;DHT22;34452;50.796;4.994;2023-12-28T13:38:48;12.50;99.90
48666;DHT22;34452;50.796;4.994;2023-12-28T13:41:13;12.40;99.90
48666;DHT22;34452;50.796;4.994;2023-12-28T13:43:39;12.40;99.90
48666;DHT22;34452;50.796;4.994;2023-12-28T13:46:05;12.40;99.90
48666;DHT22;34452;50.796;4.994;2023-12-28T13:48:31;12.40;99.90
48666;DHT22;34452;50.796;4.994;2023-12-28T13:50:57;12.40;99.90
48666;DHT22;34452;50.796;4.994;2023-12-28T13:53:22;12.40;99.90
48666;DHT22;34452;50.796;4.994;2023-12-28T13:55:48;12.30;99.90
48666;DHT22;34452;50.796;4.994;2023-12-28T13:58:14;12.30;99.90
48666;DHT22;34452;50.796;4.994;2023-12-28T14:00:40;12.30;99.90
48666;DHT22;34452;50.796;4.994;2023-12-28T14:03:06;12.20;99.90
48666;DHT22;34452;50.796;4.994;2023-12-28T14:05:31;12.20;99.90
48666;DHT22;34452;50.796;4.994;2023-12-28T14:07:57;12.20;99.90
48666;DHT22;34452;50.796;4.994;2023-12-28T14:10:23;12.20;99.90
48666;DHT22;34452;50.796;4.994;2023-12-28T14:12:49;12.20;99.90
48666;DHT22;34452;50.796;4.994;2023-12-28T14:15:15;12.20;99.90
48666;DHT22;34452;50.796;4.994;2023-12-28T14:17:42;12.10;99.90
48666;DHT22;34452;50.796;4.994;2023-12-28T14:20:08;12.10;99.90
48666;DHT22;34452;50.796;4.994;2023-12-28T14:22:38;12.00;99.90
48666;DHT22;34452;50.796;4.994;2023-12-28T14:25:04;12.00;99.90
48666;DHT22;34452;50.796;4.994;2023-12-28T14:27:30;12.00;99.90
48666;DHT22;34452;50.796;4.994;2023-12-28T14:29:57;12.00;99.90
48666;DHT22;34452;50.796;4.994;2023-12-28T14:32:23;12.00;99.90
48666;DHT22;34452;50.796;4.994;2023-12-28T14:34:49;11.90;99.90
48666;DHT22;34452;50.796;4.994;2023-12-28T14:37:15;11.90;99.90
48666;DHT22;34452;50.796;4.994;2023-12-28T14:39:41;11.90;99.90
48666;DHT22;34452;50.796;4.994;2023-12-28T14:42:07;11.80;99.90
48666;DHT22;34452;50.796;4.994;2023-12-28T14:44:33;11.80;99.90
48666;DHT22;34452;50.796;4.994;2023-12-28T14:46:59;11.70;99.90
48666;DHT22;34452;50.796;4.994;2023-12-28T14:49:24;11.70;99.90
48666;DHT22;34452;50.796;4.994;2023-12-28T14:51:50;11.70;99.90
48666;DHT22;34452;50.796;4.994;2023-12-28T14:54:16;11.60;99.90
48666;DHT22;34452;50.796;4.994;2023-12-28T14:56:41;11.60;99.90
48666;DHT22;34452;50.796;4.994;2023-12-28T14:59:07;11.60;99.90
48666;DHT22;34452;50.796;4.994;2023-12-28T15:01:33;11.50;99.90
48666;DHT22;34452;50.796;4.994;2023-12-28T15:03:58;11.50;99.90
48666;DHT22;34452;50.796;4.994;2023-12-28T15:06:24;11.50;99.90
48666;DHT22;34452;50.796;4.994;2023-12-28T15:08:50;11.40;99.90
48666;DHT22;34452;50.796;4.994;2023-12-28T15:11:16;11.40;99.90
48666;DHT22;34452;50.796;4.994;2023-12-28T15:13:42;11.40;99.90
48666;DHT22;34452;50.796;4.994;2023-12-28T15:16:08;11.40;99.90
48666;DHT22;34452;50.796;4.994;2023-12-28T15:18:35;11.40;99.90
48666;DHT22;34452;50.796;4.994;2023-12-28T15:21:01;11.30;99.90
48666;DHT22;34452;50.796;4.994;2023-12-28T15:23:27;11.30;99.90
48666;DHT22;34452;50.796;4.994;2023-12-28T15:25:53;11.30;99.90
48666;DHT22;34452;50.796;4.994;2023-12-28T15:28:19;11.20;99.90
48666;DHT22;34452;50.796;4.994;2023-12-28T15:30:46;11.20;99.90
48666;DHT22;34452;50.796;4.994;2023-12-28T15:33:12;11.20;99.90
48666;DHT22;34452;50.796;4.994;2023-12-28T15:35:38;11.10;99.90
48666;DHT22;34452;50.796;4.994;2023-12-28T15:38:04;11.10;99.90
48666;DHT22;34452;50.796;4.994;2023-12-28T15:40:30;11.10;99.90
48666;DHT22;34452;50.796;4.994;2023-12-28T15:42:56;11.10;99.90
48666;DHT22;34452;50.796;4.994;2023-12-28T15:45:22;11.10;99.90
48666;DHT22;34452;50.796;4.994;2023-12-28T15:47:48;11.00;99.90
48666;DHT22;34452;50.796;4.994;2023-12-28T15:50:13;11.00;99.90
48666;DHT22;34452;50.796;4.994;2023-12-28T15:52:39;11.00;99.90
48666;DHT22;34452;50.796;4.994;2023-12-28T15:55:06;11.00;99.90
48666;DHT22;34452;50.796;4.994;2023-12-28T15:57:31;11.00;99.90
48666;DHT22;34452;50.796;4.994;2023-12-28T15:59:57;11.00;99.90
48666;DHT22;34452;50.796;4.994;2023-12-28T16:02:27;11.00;99.90
48666;DHT22;34452;50.796;4.994;2023-12-28T16:04:54;10.90;99.90
48666;DHT22;34452;50.796;4.994;2023-12-28T16:07:22;10.90;99.90
48666;DHT22;34452;50.796;4.994;2023-12-28T16:09:47;10.90;99.90
48666;DHT22;34452;50.796;4.994;2023-12-28T16:12:13;10.80;99.90
48666;DHT22;34452;50.796;4.994;2023-12-28T16:14:40;10.80;99.90
48666;DHT22;34452;50.796;4.994;2023-12-28T16:17:07;10.80;99.90
48666;DHT22;34452;50.796;4.994;2023-12-28T16:19:34;10.80;99.90
48666;DHT22;34452;50.796;4.994;2023-12-28T16:22:00;10.80;99.90
48666;DHT22;34452;50.796;4.994;2023-12-28T16:24:25;10.80;99.90
48666;DHT22;34452;50.796;4.994;2023-12-28T16:26:51;10.80;99.90
48666;DHT22;34452;50.796;4.994;2023-12-28T16:29:17;10.70;99.90
48666;DHT22;34452;50.796;4.994;2023-12-28T16:31:43;10.70;99.90
48666;DHT22;34452;50.796;4.994;2023-12-28T16:34:09;10.70;99.90
48666;DHT22;34452;50.796;4.994;2023-12-28T16:36:35;10.60;99.90
48666;DHT22;34452;50.796;4.994;2023-12-28T16:39:01;10.60;99.90
48666;DHT22;34452;50.796;4.994;2023-12-28T16:41:26;10.60;99.90
48666;DHT22;34452;50.796;4.994;2023-12-28T16:43:54;10.60;99.90
48666;DHT22;34452;50.796;4.994;2023-12-28T16:46:19;10.60;99.90
48666;DHT22;34452;50.796;4.994;2023-12-28T16:48:45;10.60;99.90
48666;DHT22;34452;50.796;4.994;2023-12-28T16:51:11;10.60;99.90
48666;DHT22;34452;50.796;4.994;2023-12-28T16:53:36;10.60;99.90
48666;DHT22;34452;50.796;4.994;2023-12-28T16:56:03;10.60;99.90
48666;DHT22;34452;50.796;4.994;2023-12-28T16:58:29;10.50;99.90
48666;DHT22;34452;50.796;4.994;2023-12-28T17:00:54;10.50;99.90
48666;DHT22;34452;50.796;4.994;2023-12-28T17:03:20;10.40;99.90
48666;DHT22;34452;50.796;4.994;2023-12-28T17:05:47;10.40;99.90
48666;DHT22;34452;50.796;4.994;2023-12-28T17:08:13;10.40;99.90
48666;DHT22;34452;50.796;4.994;2023-12-28T17:10:39;10.30;99.90
48666;DHT22;34452;50.796;4.994;2023-12-28T17:13:09;10.30;99.90
48666;DHT22;34452;50.796;4.994;2023-12-28T17:15:35;10.30;99.90
48666;DHT22;34452;50.796;4.994;2023-12-28T17:18:06;10.30;99.90
48666;DHT22;34452;50.796;4.994;2023-12-28T17:20:33;10.30;99.90
48666;DHT22;34452;50.796;4.994;2023-12-28T17:23:11;10.30;99.90
48666;DHT22;34452;50.796;4.994;2023-12-28T17:28:18;10.20;99.90
48666;DHT22;34452;50.796;4.994;2023-12-28T17:30:46;10.20;99.90
48666;DHT22;34452;50.796;4.994;2023-12-28T17:33:12;10.30;99.90
48666;DHT22;34452;50.796;4.994;2023-12-28T17:35:41;10.30;99.90
48666;DHT22;34452;50.796;4.994;2023-12-28T17:38:08;10.40;99.90
48666;DHT22;34452;50.796;4.994;2023-12-28T17:40:35;10.40;99.90
48666;DHT22;34452;50.796;4.994;2023-12-28T17:43:48;10.50;99.90
48666;DHT22;34452;50.796;4.994;2023-12-28T17:48:43;10.60;99.90
48666;DHT22;34452;50.796;4.994;2023-12-28T17:51:12;10.50;99.90
48666;DHT22;34452;50.796;4.994;2023-12-28T17:53:38;10.50;99.90
48666;DHT22;34452;50.796;4.994;2023-12-28T17:56:04;10.50;99.90
48666;DHT22;34452;50.796;4.994;2023-12-28T17:58:30;10.50;99.90
48666;DHT22;34452;50.796;4.994;2023-12-28T18:00:56;10.40;99.90
48666;DHT22;34452;50.796;4.994;2023-12-28T18:03:23;10.40;99.90
48666;DHT22;34452;50.796;4.994;2023-12-28T18:05:52;10.30;99.90
48666;DHT22;34452;50.796;4.994;2023-12-28T18:08:17;10.30;99.90
48666;DHT22;34452;50.796;4.994;2023-12-28T18:10:43;10.20;99.90
48666;DHT22;34452;50.796;4.994;2023-12-28T18:13:09;10.10;99.90
48666;DHT22;34452;50.796;4.994;2023-12-28T18:15:35;10.10;99.90
48666;DHT22;34452;50.796;4.994;2023-12-28T18:18:01;10.00;99.90
48666;DHT22;34452;50.796;4.994;2023-12-28T18:20:26;10.00;99.90
48666;DHT22;34452;50.796;4.994;2023-12-28T18:22:52;10.00;99.90
48666;DHT22;34452;50.796;4.994;2023-12-28T18:25:18;10.00;99.90
48666;DHT22;34452;50.796;4.994;2023-12-28T18:27:44;10.00;99.90
48666;DHT22;34452;50.796;4.994;2023-12-28T18:30:10;10.10;99.90
48666;DHT22;34452;50.796;4.994;2023-12-28T18:32:36;10.10;99.90
48666;DHT22;34452;50.796;4.994;2023-12-28T18:35:02;10.20;99.90
48666;DHT22;34452;50.796;4.994;2023-12-28T18:37:27;10.20;99.90
48666;DHT22;34452;50.796;4.994;2023-12-28T18:39:53;10.30;99.90
48666;DHT22;34452;50.796;4.994;2023-12-28T18:42:19;10.30;99.90
48666;DHT22;34452;50.796;4.994;2023-12-28T18:44:45;10.30;99.90
48666;DHT22;34452;50.796;4.994;2023-12-28T18:47:11;10.30;99.90
48666;DHT22;34452;50.796;4.994;2023-12-28T18:49:37;10.30;99.90
48666;DHT22;34452;50.796;4.994;2023-12-28T18:52:03;10.30;99.90
48666;DHT22;34452;50.796;4.994;2023-12-28T18:54:30;10.30;99.90
48666;DHT22;34452;50.796;4.994;2023-12-28T18:56:56;10.40;99.90
48666;DHT22;34452;50.796;4.994;2023-12-28T18:59:22;10.50;99.90
48666;DHT22;34452;50.796;4.994;2023-12-28T19:01:49;10.50;99.90
48666;DHT22;34452;50.796;4.994;2023-12-28T19:04:17;10.60;99.90
48666;DHT22;34452;50.796;4.994;2023-12-28T19:06:43;10.60;99.90
48666;DHT22;34452;50.796;4.994;2023-12-28T19:09:09;10.70;99.90
48666;DHT22;34452;50.796;4.994;2023-12-28T19:11:35;10.70;99.90
48666;DHT22;34452;50.796;4.994;2023-12-28T19:14:01;10.60;99.90
48666;DHT22;34452;50.796;4.994;2023-12-28T19:16:27;10.60;99.90
48666;DHT22;34452;50.796;4.994;2023-12-28T19:18:53;10.60;99.90
48666;DHT22;34452;50.796;4.994;2023-12-28T19:21:20;10.70;99.90
48666;DHT22;34452;50.796;4.994;2023-12-28T19:23:47;10.70;99.90
48666;DHT22;34452;50.796;4.994;2023-12-28T19:26:13;10.70;99.90
48666;DHT22;34452;50.796;4.994;2023-12-28T19:28:40;10.60;99.90
48666;DHT22;34452;50.796;4.994;2023-12-28T19:31:05;10.70;99.90
48666;DHT22;34452;50.796;4.994;2023-12-28T19:33:31;10.70;99.90
48666;DHT22;34452;50.796;4.994;2023-12-28T19:35:57;10.70;99.90
48666;DHT22;34452;50.796;4.994;2023-12-28T19:38:23;10.70;99.90
48666;DHT22;34452;50.796;4.994;2023-12-28T19:40:49;10.70;99.90
48666;DHT22;34452;50.796;4.994;2023-12-28T19:43:14;10.70;99.90
48666;DHT22;34452;50.796;4.994;2023-12-28T19:45:43;10.70;99.90
48666;DHT22;34452;50.796;4.994;2023-12-28T19:48:08;10.70;99.90
48666;DHT22;34452;50.796;4.994;2023-12-28T19:50:34;10.80;99.90
48666;DHT22;34452;50.796;4.994;2023-12-28T19:53:00;10.80;99.90
48666;DHT22;34452;50.796;4.994;2023-12-28T19:55:26;10.80;99.90
48666;DHT22;34452;50.796;4.994;2023-12-28T19:57:53;10.80;99.90
48666;DHT22;34452;50.796;4.994;2023-12-28T20:00:19;10.70;99.90
48666;DHT22;34452;50.796;4.994;2023-12-28T20:02:46;10.70;99.90
48666;DHT22;34452;50.796;4.994;2023-12-28T20:05:12;10.70;99.90
48666;DHT22;34452;50.796;4.994;2023-12-28T20:07:38;10.70;99.90
48666;DHT22;34452;50.796;4.994;2023-12-28T20:10:04;10.60;99.90
48666;DHT22;34452;50.796;4.994;2023-12-28T20:12:30;10.60;99.90
48666;DHT22;34452;50.796;4.994;2023-12-28T20:14:55;10.60;99.90
48666;DHT22;34452;50.796;4.994;2023-12-28T20:17:21;10.60;99.90
48666;DHT22;34452;50.796;4.994;2023-12-28T20:19:50;10.60;99.90
48666;DHT22;34452;50.796;4.994;2023-12-28T20:22:16;10.60;99.90
48666;DHT22;34452;50.796;4.994;2023-12-28T20:24:41;10.60;99.90
48666;DHT22;34452;50.796;4.994;2023-12-28T20:27:07;10.60;99.90
48666;DHT22;34452;50.796;4.994;2023-12-28T20:29:33;10.60;99.90
48666;DHT22;34452;50.796;4.994;2023-12-28T20:32:00;10.60;99.90
48666;DHT22;34452;50.796;4.994;2023-12-28T20:34:26;10.70;99.90
48666;DHT22;34452;50.796;4.994;2023-12-28T20:36:52;10.70;99.90
48666;DHT22;34452;50.796;4.994;2023-12-28T20:39:18;10.70;99.90
48666;DHT22;34452;50.796;4.994;2023-12-28T20:41:48;10.70;99.90
48666;DHT22;34452;50.796;4.994;2023-12-28T20:44:14;10.70;99.90
48666;DHT22;34452;50.796;4.994;2023-12-28T20:46:39;10.70;99.90
48666;DHT22;34452;50.796;4.994;2023-12-28T20:49:05;10.70;99.90
48666;DHT22;34452;50.796;4.994;2023-12-28T20:51:31;10.70;99.90
48666;DHT22;34452;50.796;4.994;2023-12-28T20:53:58;10.70;99.90
48666;DHT22;34452;50.796;4.994;2023-12-28T20:56:24;10.70;99.90
48666;DHT22;34452;50.796;4.994;2023-12-28T20:58:49;10.70;99.90
48666;DHT22;34452;50.796;4.994;2023-12-28T21:01:15;10.70;99.90
48666;DHT22;34452;50.796;4.994;2023-12-28T21:03:41;10.70;99.90
48666;DHT22;34452;50.796;4.994;2023-12-28T21:06:07;10.60;99.90
48666;DHT22;34452;50.796;4.994;2023-12-28T21:08:33;10.70;99.90
48666;DHT22;34452;50.796;4.994;2023-12-28T21:10:59;10.60;99.90
48666;DHT22;34452;50.796;4.994;2023-12-28T21:13:25;10.70;99.90
48666;DHT22;34452;50.796;4.994;2023-12-28T21:15:56;10.70;99.90
48666;DHT22;34452;50.796;4.994;2023-12-28T21:18:22;10.70;99.90
48666;DHT22;34452;50.796;4.994;2023-12-28T21:20:47;10.80;99.90
48666;DHT22;34452;50.796;4.994;2023-12-28T21:23:16;10.80;99.90
48666;DHT22;34452;50.796;4.994;2023-12-28T21:25:42;10.80;99.90
48666;DHT22;34452;50.796;4.994;2023-12-28T21:28:09;10.90;99.90
48666;DHT22;34452;50.796;4.994;2023-12-28T21:30:35;10.90;99.90
48666;DHT22;34452;50.796;4.994;2023-12-28T21:33:02;10.90;99.90
48666;DHT22;34452;50.796;4.994;2023-12-28T21:35:29;10.90;99.90
48666;DHT22;34452;50.796;4.994;2023-12-28T21:37:54;11.00;99.90
48666;DHT22;34452;50.796;4.994;2023-12-28T21:40:20;11.00;99.90
48666;DHT22;34452;50.796;4.994;2023-12-28T21:42:47;11.00;99.90
48666;DHT22;34452;50.796;4.994;2023-12-28T21:45:13;11.00;99.90
48666;DHT22;34452;50.796;4.994;2023-12-28T21:47:39;11.00;99.90
48666;DHT22;34452;50.796;4.994;2023-12-28T21:50:05;11.00;99.90
48666;DHT22;34452;50.796;4.994;2023-12-28T21:52:32;11.00;99.90
48666;DHT22;34452;50.796;4.994;2023-12-28T21:54:58;10.90;99.90
48666;DHT22;34452;50.796;4.994;2023-12-28T21:57:25;10.90;99.90
48666;DHT22;34452;50.796;4.994;2023-12-28T21:59:52;10.90;99.90
48666;DHT22;34452;50.796;4.994;2023-12-28T22:02:18;10.90;99.90
48666;DHT22;34452;50.796;4.994;2023-12-28T22:04:44;10.90;99.90
48666;DHT22;34452;50.796;4.994;2023-12-28T22:07:10;10.80;99.90
48666;DHT22;34452;50.796;4.994;2023-12-28T22:09:36;10.80;99.90
48666;DHT22;34452;50.796;4.994;2023-12-28T22:12:05;10.80;99.90
48666;DHT22;34452;50.796;4.994;2023-12-28T22:14:30;10.70;99.90
48666;DHT22;34452;50.796;4.994;2023-12-28T22:16:56;10.70;99.90
48666;DHT22;34452;50.796;4.994;2023-12-28T22:19:22;10.70;99.90
48666;DHT22;34452;50.796;4.994;2023-12-28T22:21:48;10.60;99.90
48666;DHT22;34452;50.796;4.994;2023-12-28T22:24:15;10.60;99.90
48666;DHT22;34452;50.796;4.994;2023-12-28T22:26:41;10.50;99.90
48666;DHT22;34452;50.796;4.994;2023-12-28T22:29:09;10.50;99.90
48666;DHT22;34452;50.796;4.994;2023-12-28T22:31:35;10.40;99.90
48666;DHT22;34452;50.796;4.994;2023-12-28T22:34:01;10.50;99.90
48666;DHT22;34452;50.796;4.994;2023-12-28T22:36:27;10.50;99.90
48666;DHT22;34452;50.796;4.994;2023-12-28T22:38:52;10.50;99.90
48666;DHT22;34452;50.796;4.994;2023-12-28T22:41:18;10.60;99.90
48666;DHT22;34452;50.796;4.994;2023-12-28T22:43:47;10.60;99.90
48666;DHT22;34452;50.796;4.994;2023-12-28T22:46:12;10.70;99.90
48666;DHT22;34452;50.796;4.994;2023-12-28T22:48:38;10.70;99.90
48666;DHT22;34452;50.796;4.994;2023-12-28T22:51:06;10.70;99.90
48666;DHT22;34452;50.796;4.994;2023-12-28T22:53:33;10.80;99.90
48666;DHT22;34452;50.796;4.994;2023-12-28T22:55:59;10.80;99.90
48666;DHT22;34452;50.796;4.994;2023-12-28T22:58:25;10.80;99.90
48666;DHT22;34452;50.796;4.994;2023-12-28T23:00:50;10.80;99.90
48666;DHT22;34452;50.796;4.994;2023-12-28T23:03:18;10.80;99.90
48666;DHT22;34452;50.796;4.994;2023-12-28T23:05:44;10.80;99.90
48666;DHT22;34452;50.796;4.994;2023-12-28T23:08:10;10.90;99.90
48666;DHT22;34452;50.796;4.994;2023-12-28T23:10:36;10.90;99.90
48666;DHT22;34452;50.796;4.994;2023-12-28T23:13:03;10.90;99.90
48666;DHT22;34452;50.796;4.994;2023-12-28T23:15:29;10.90;99.90
48666;DHT22;34452;50.796;4.994;2023-12-28T23:18:01;10.90;99.90
48666;DHT22;34452;50.796;4.994;2023-12-28T23:20:27;10.90;99.90
48666;DHT22;34452;50.796;4.994;2023-12-28T23:22:54;10.90;99.90
48666;DHT22;34452;50.796;4.994;2023-12-28T23:25:20;10.90;99.90
48666;DHT22;34452;50.796;4.994;2023-12-28T23:27:46;10.90;99.90
48666;DHT22;34452;50.796;4.994;2023-12-28T23:30:14;10.90;99.90
48666;DHT22;34452;50.796;4.994;2023-12-28T23:32:41;10.90;99.90
48666;DHT22;34452;50.796;4.994;2023-12-28T23:35:07;10.90;99.90
48666;DHT22;34452;50.796;4.994;2023-12-28T23:37:34;10.90;99.90
48666;DHT22;34452;50.796;4.994;2023-12-28T23:40:01;10.90;99.90
48666;DHT22;34452;50.796;4.994;2023-12-28T23:42:26;10.90;99.90